sensor_id;sensor_type;location;lat;lon;timestamp;temperature;humidity
34135;DHT22;20410;55.578;12.968;2022-08-25T00:01:40;18.90;99.90
34135;DHT22;20410;55.578;12.968;2022-08-25T00:04:10;18.80;99.90
34135;DHT22;20410;55.578;12.968;2022-08-25T00:06:37;18.90;99.90
34135;DHT22;20410;55.578;12.968;2022-08-25T00:09:04;18.90;99.90
34135;DHT22;20410;55.578;12.968;2022-08-25T00:11:31;18.90;99.90
34135;DHT22;20410;55.578;12.968;2022-08-25T00:13:59;18.90;99.90
34135;DHT22;20410;55.578;12.968;2022-08-25T00:16:26;18.80;99.90
34135;DHT22;20410;55.578;12.968;2022-08-25T00:18:55;18.80;99.90
34135;DHT22;20410;55.578;12.968;2022-08-25T00:21:23;18.80;99.90
34135;DHT22;20410;55.578;12.968;2022-08-25T00:23:49;18.70;99.90
34135;DHT22;20410;55.578;12.968;2022-08-25T00:26:15;18.70;99.90
34135;DHT22;20410;55.578;12.968;2022-08-25T00:28:42;18.60;99.90
34135;DHT22;20410;55.578;12.968;2022-08-25T00:31:17;18.60;99.90
34135;DHT22;20410;55.578;12.968;2022-08-25T00:33:44;18.60;99.90
34135;DHT22;20410;55.578;12.968;2022-08-25T00:36:10;18.60;99.90
34135;DHT22;20410;55.578;12.968;2022-08-25T00:38:43;18.50;99.90
34135;DHT22;20410;55.578;12.968;2022-08-25T00:41:11;18.50;99.90
34135;DHT22;20410;55.578;12.968;2022-08-25T00:46:10;18.50;99.90
34135;DHT22;20410;55.578;12.968;2022-08-25T00:48:38;18.60;99.90
34135;DHT22;20410;55.578;12.968;2022-08-25T00:51:06;18.50;99.90
34135;DHT22;20410;55.578;12.968;2022-08-25T00:53:34;18.50;99.90
34135;DHT22;20410;55.578;12.968;2022-08-25T00:55:59;18.40;99.90
34135;DHT22;20410;55.578;12.968;2022-08-25T00:58:27;18.40;99.90
34135;DHT22;20410;55.578;12.968;2022-08-25T01:00:55;18.40;99.90
34135;DHT22;20410;55.578;12.968;2022-08-25T01:03:23;18.30;99.90
34135;DHT22;20410;55.578;12.968;2022-08-25T01:05:50;18.30;99.90
34135;DHT22;20410;55.578;12.968;2022-08-25T01:08:16;18.30;99.90
34135;DHT22;20410;55.578;12.968;2022-08-25T01:10:46;18.30;99.90
34135;DHT22;20410;55.578;12.968;2022-08-25T01:13:34;18.30;99.90
34135;DHT22;20410;55.578;12.968;2022-08-25T01:16:01;18.20;99.90
34135;DHT22;20410;55.578;12.968;2022-08-25T01:18:27;18.20;99.90
34135;DHT22;20410;55.578;12.968;2022-08-25T01:20:54;18.20;99.90
34135;DHT22;20410;55.578;12.968;2022-08-25T01:23:22;18.20;99.90
34135;DHT22;20410;55.578;12.968;2022-08-25T01:25:51;18.20;99.90
34135;DHT22;20410;55.578;12.968;2022-08-25T01:28:19;18.20;99.90
34135;DHT22;20410;55.578;12.968;2022-08-25T01:30:44;18.20;99.90
34135;DHT22;20410;55.578;12.968;2022-08-25T01:33:11;18.20;99.90
34135;DHT22;20410;55.578;12.968;2022-08-25T01:35:38;18.10;99.90
34135;DHT22;20410;55.578;12.968;2022-08-25T01:38:06;18.20;99.90
34135;DHT22;20410;55.578;12.968;2022-08-25T01:40:33;18.10;99.90
34135;DHT22;20410;55.578;12.968;2022-08-25T01:45:39;18.10;99.90
34135;DHT22;20410;55.578;12.968;2022-08-25T01:48:06;18.10;99.90
34135;DHT22;20410;55.578;12.968;2022-08-25T01:50:33;18.10;99.90
34135;DHT22;20410;55.578;12.968;2022-08-25T01:55:28;18.10;99.90
34135;DHT22;20410;55.578;12.968;2022-08-25T01:57:54;18.00;99.90
34135;DHT22;20410;55.578;12.968;2022-08-25T02:00:21;18.00;99.90
34135;DHT22;20410;55.578;12.968;2022-08-25T02:02:47;18.10;99.90
34135;DHT22;20410;55.578;12.968;2022-08-25T02:05:14;18.10;99.90
34135;DHT22;20410;55.578;12.968;2022-08-25T02:07:41;18.00;99.90
34135;DHT22;20410;55.578;12.968;2022-08-25T02:10:09;18.00;99.90
34135;DHT22;20410;55.578;12.968;2022-08-25T02:12:35;18.00;99.90
34135;DHT22;20410;55.578;12.968;2022-08-25T02:15:02;17.90;99.90
34135;DHT22;20410;55.578;12.968;2022-08-25T02:17:28;17.90;99.90
34135;DHT22;20410;55.578;12.968;2022-08-25T02:19:54;17.90;99.90
34135;DHT22;20410;55.578;12.968;2022-08-25T02:22:22;17.80;99.90
34135;DHT22;20410;55.578;12.968;2022-08-25T02:24:47;17.80;99.90
34135;DHT22;20410;55.578;12.968;2022-08-25T02:27:13;17.80;99.90
34135;DHT22;20410;55.578;12.968;2022-08-25T02:29:39;17.80;99.90
34135;DHT22;20410;55.578;12.968;2022-08-25T02:32:05;17.80;99.90
34135;DHT22;20410;55.578;12.968;2022-08-25T02:34:31;17.80;99.90
34135;DHT22;20410;55.578;12.968;2022-08-25T02:36:56;17.70;99.90
34135;DHT22;20410;55.578;12.968;2022-08-25T02:39:22;17.70;99.90
34135;DHT22;20410;55.578;12.968;2022-08-25T02:41:48;17.70;99.90
34135;DHT22;20410;55.578;12.968;2022-08-25T02:44:13;17.60;99.90
34135;DHT22;20410;55.578;12.968;2022-08-25T02:46:39;17.50;99.90
34135;DHT22;20410;55.578;12.968;2022-08-25T02:49:05;17.60;99.90
34135;DHT22;20410;55.578;12.968;2022-08-25T02:51:32;17.60;99.90
34135;DHT22;20410;55.578;12.968;2022-08-25T02:53:59;17.60;99.90
34135;DHT22;20410;55.578;12.968;2022-08-25T02:56:27;17.60;99.90
34135;DHT22;20410;55.578;12.968;2022-08-25T02:58:52;17.60;99.90
34135;DHT22;20410;55.578;12.968;2022-08-25T03:01:19;17.60;99.90
34135;DHT22;20410;55.578;12.968;2022-08-25T03:03:45;17.60;99.90
34135;DHT22;20410;55.578;12.968;2022-08-25T03:06:14;17.60;99.90
34135;DHT22;20410;55.578;12.968;2022-08-25T03:08:41;17.50;99.90
34135;DHT22;20410;55.578;12.968;2022-08-25T03:11:06;17.50;99.90
34135;DHT22;20410;55.578;12.968;2022-08-25T03:13:32;17.50;99.90
34135;DHT22;20410;55.578;12.968;2022-08-25T03:15:59;17.50;99.90
34135;DHT22;20410;55.578;12.968;2022-08-25T03:18:25;17.50;99.90
34135;DHT22;20410;55.578;12.968;2022-08-25T03:20:50;17.50;99.90
34135;DHT22;20410;55.578;12.968;2022-08-25T03:23:16;17.50;99.90
34135;DHT22;20410;55.578;12.968;2022-08-25T03:25:42;17.40;99.90
34135;DHT22;20410;55.578;12.968;2022-08-25T03:28:27;17.40;99.90
34135;DHT22;20410;55.578;12.968;2022-08-25T03:30:55;17.40;99.90
34135;DHT22;20410;55.578;12.968;2022-08-25T03:33:21;17.40;99.90
34135;DHT22;20410;55.578;12.968;2022-08-25T03:35:46;17.40;99.90
34135;DHT22;20410;55.578;12.968;2022-08-25T03:38:12;17.30;99.90
34135;DHT22;20410;55.578;12.968;2022-08-25T03:40:38;17.30;99.90
34135;DHT22;20410;55.578;12.968;2022-08-25T03:43:03;17.30;99.90
34135;DHT22;20410;55.578;12.968;2022-08-25T03:45:29;17.30;99.90
34135;DHT22;20410;55.578;12.968;2022-08-25T03:47:55;17.30;99.90
34135;DHT22;20410;55.578;12.968;2022-08-25T03:50:21;17.30;99.90
34135;DHT22;20410;55.578;12.968;2022-08-25T03:52:55;17.20;99.90
34135;DHT22;20410;55.578;12.968;2022-08-25T03:55:22;17.20;99.90
34135;DHT22;20410;55.578;12.968;2022-08-25T03:57:48;17.30;99.90
34135;DHT22;20410;55.578;12.968;2022-08-25T04:00:14;17.20;99.90
34135;DHT22;20410;55.578;12.968;2022-08-25T04:02:40;17.20;99.90
34135;DHT22;20410;55.578;12.968;2022-08-25T04:05:07;17.20;99.90
34135;DHT22;20410;55.578;12.968;2022-08-25T04:07:32;17.20;99.90
34135;DHT22;20410;55.578;12.968;2022-08-25T04:09:58;17.20;99.90
34135;DHT22;20410;55.578;12.968;2022-08-25T04:12:24;17.10;99.90
34135;DHT22;20410;55.578;12.968;2022-08-25T04:14:50;17.10;99.90
34135;DHT22;20410;55.578;12.968;2022-08-25T04:17:16;17.10;99.90
34135;DHT22;20410;55.578;12.968;2022-08-25T04:19:42;17.10;99.90
34135;DHT22;20410;55.578;12.968;2022-08-25T04:22:07;17.20;99.90
34135;DHT22;20410;55.578;12.968;2022-08-25T04:24:33;17.20;99.90
34135;DHT22;20410;55.578;12.968;2022-08-25T04:26:59;17.20;99.90
34135;DHT22;20410;55.578;12.968;2022-08-25T04:29:25;17.10;99.90
34135;DHT22;20410;55.578;12.968;2022-08-25T04:31:52;17.10;99.90
34135;DHT22;20410;55.578;12.968;2022-08-25T04:34:21;17.10;99.90
34135;DHT22;20410;55.578;12.968;2022-08-25T04:36:47;17.10;99.90
34135;DHT22;20410;55.578;12.968;2022-08-25T04:39:15;17.10;99.90
34135;DHT22;20410;55.578;12.968;2022-08-25T04:41:41;17.20;99.90
34135;DHT22;20410;55.578;12.968;2022-08-25T04:44:06;17.20;99.90
34135;DHT22;20410;55.578;12.968;2022-08-25T04:46:33;17.30;99.90
34135;DHT22;20410;55.578;12.968;2022-08-25T04:49:00;17.30;99.90
34135;DHT22;20410;55.578;12.968;2022-08-25T04:51:37;17.30;99.90
34135;DHT22;20410;55.578;12.968;2022-08-25T04:54:06;17.40;99.90
34135;DHT22;20410;55.578;12.968;2022-08-25T04:56:32;17.40;99.90
34135;DHT22;20410;55.578;12.968;2022-08-25T04:59:08;17.50;99.90
34135;DHT22;20410;55.578;12.968;2022-08-25T05:01:35;17.60;99.90
34135;DHT22;20410;55.578;12.968;2022-08-25T05:04:02;17.60;99.90
34135;DHT22;20410;55.578;12.968;2022-08-25T05:06:29;17.70;99.90
34135;DHT22;20410;55.578;12.968;2022-08-25T05:08:55;17.70;99.90
34135;DHT22;20410;55.578;12.968;2022-08-25T05:11:22;17.80;99.90
34135;DHT22;20410;55.578;12.968;2022-08-25T05:13:49;17.90;99.90
34135;DHT22;20410;55.578;12.968;2022-08-25T05:16:15;17.90;99.90
34135;DHT22;20410;55.578;12.968;2022-08-25T05:18:42;18.00;99.90
34135;DHT22;20410;55.578;12.968;2022-08-25T05:21:10;18.00;99.90
34135;DHT22;20410;55.578;12.968;2022-08-25T05:23:37;18.00;99.90
34135;DHT22;20410;55.578;12.968;2022-08-25T05:26:12;18.00;99.90
34135;DHT22;20410;55.578;12.968;2022-08-25T05:28:39;17.90;99.90
34135;DHT22;20410;55.578;12.968;2022-08-25T05:31:10;18.00;99.90
34135;DHT22;20410;55.578;12.968;2022-08-25T05:33:37;18.10;99.90
34135;DHT22;20410;55.578;12.968;2022-08-25T05:36:04;18.00;99.90
34135;DHT22;20410;55.578;12.968;2022-08-25T05:38:30;17.90;99.90
34135;DHT22;20410;55.578;12.968;2022-08-25T05:40:58;17.90;99.90
34135;DHT22;20410;55.578;12.968;2022-08-25T05:43:24;17.90;99.90
34135;DHT22;20410;55.578;12.968;2022-08-25T05:45:52;17.90;99.90
34135;DHT22;20410;55.578;12.968;2022-08-25T05:48:18;17.80;99.90
34135;DHT22;20410;55.578;12.968;2022-08-25T05:50:51;17.80;99.90
34135;DHT22;20410;55.578;12.968;2022-08-25T05:53:16;17.60;99.90
34135;DHT22;20410;55.578;12.968;2022-08-25T05:55:43;17.60;99.90
34135;DHT22;20410;55.578;12.968;2022-08-25T05:58:09;17.60;99.90
34135;DHT22;20410;55.578;12.968;2022-08-25T06:00:36;17.60;99.90
34135;DHT22;20410;55.578;12.968;2022-08-25T06:03:02;17.60;99.90
34135;DHT22;20410;55.578;12.968;2022-08-25T06:05:28;17.70;99.90
34135;DHT22;20410;55.578;12.968;2022-08-25T06:07:55;17.70;99.90
34135;DHT22;20410;55.578;12.968;2022-08-25T06:10:21;17.70;99.90
34135;DHT22;20410;55.578;12.968;2022-08-25T06:12:46;17.70;99.90
34135;DHT22;20410;55.578;12.968;2022-08-25T06:15:14;17.70;99.90
34135;DHT22;20410;55.578;12.968;2022-08-25T06:17:40;17.80;99.90
34135;DHT22;20410;55.578;12.968;2022-08-25T06:20:28;17.80;99.90
34135;DHT22;20410;55.578;12.968;2022-08-25T06:22:55;17.70;99.90
34135;DHT22;20410;55.578;12.968;2022-08-25T06:25:22;17.80;99.90
34135;DHT22;20410;55.578;12.968;2022-08-25T06:27:49;17.90;99.90
34135;DHT22;20410;55.578;12.968;2022-08-25T06:30:18;18.00;99.90
34135;DHT22;20410;55.578;12.968;2022-08-25T06:32:45;18.00;99.90
34135;DHT22;20410;55.578;12.968;2022-08-25T06:35:13;18.10;99.90
34135;DHT22;20410;55.578;12.968;2022-08-25T06:37:39;18.10;99.90
34135;DHT22;20410;55.578;12.968;2022-08-25T06:40:08;18.20;99.90
34135;DHT22;20410;55.578;12.968;2022-08-25T06:42:34;18.30;99.90
34135;DHT22;20410;55.578;12.968;2022-08-25T06:45:00;18.30;99.90
34135;DHT22;20410;55.578;12.968;2022-08-25T06:47:26;18.40;99.90
34135;DHT22;20410;55.578;12.968;2022-08-25T06:49:52;18.50;99.90
34135;DHT22;20410;55.578;12.968;2022-08-25T06:52:18;18.60;99.90
34135;DHT22;20410;55.578;12.968;2022-08-25T06:54:43;18.60;99.90
34135;DHT22;20410;55.578;12.968;2022-08-25T06:57:09;18.70;99.90
34135;DHT22;20410;55.578;12.968;2022-08-25T06:59:35;19.00;99.90
34135;DHT22;20410;55.578;12.968;2022-08-25T07:02:02;19.00;99.90
34135;DHT22;20410;55.578;12.968;2022-08-25T07:04:28;19.20;99.90
34135;DHT22;20410;55.578;12.968;2022-08-25T07:06:54;19.30;99.90
34135;DHT22;20410;55.578;12.968;2022-08-25T07:09:20;19.30;99.90
34135;DHT22;20410;55.578;12.968;2022-08-25T07:11:45;19.30;99.90
34135;DHT22;20410;55.578;12.968;2022-08-25T07:14:13;19.40;99.90
34135;DHT22;20410;55.578;12.968;2022-08-25T07:16:39;19.50;99.90
34135;DHT22;20410;55.578;12.968;2022-08-25T07:19:05;19.60;99.90
34135;DHT22;20410;55.578;12.968;2022-08-25T07:21:34;19.70;99.90
34135;DHT22;20410;55.578;12.968;2022-08-25T07:24:03;19.80;99.90
34135;DHT22;20410;55.578;12.968;2022-08-25T07:26:31;20.00;99.90
34135;DHT22;20410;55.578;12.968;2022-08-25T07:28:59;20.20;99.90
34135;DHT22;20410;55.578;12.968;2022-08-25T07:31:25;20.10;99.90
34135;DHT22;20410;55.578;12.968;2022-08-25T07:33:51;20.10;99.90
34135;DHT22;20410;55.578;12.968;2022-08-25T07:36:39;20.20;99.90
34135;DHT22;20410;55.578;12.968;2022-08-25T07:39:05;20.30;99.90
34135;DHT22;20410;55.578;12.968;2022-08-25T07:41:34;20.40;99.90
34135;DHT22;20410;55.578;12.968;2022-08-25T07:44:00;20.50;99.90
34135;DHT22;20410;55.578;12.968;2022-08-25T07:46:26;20.50;99.90
34135;DHT22;20410;55.578;12.968;2022-08-25T07:48:52;20.60;99.90
34135;DHT22;20410;55.578;12.968;2022-08-25T07:51:18;20.50;99.90
34135;DHT22;20410;55.578;12.968;2022-08-25T07:53:43;20.50;99.90
34135;DHT22;20410;55.578;12.968;2022-08-25T07:56:14;20.70;99.90
34135;DHT22;20410;55.578;12.968;2022-08-25T07:58:40;20.70;99.90
34135;DHT22;20410;55.578;12.968;2022-08-25T08:01:12;20.80;99.90
34135;DHT22;20410;55.578;12.968;2022-08-25T08:03:37;21.00;99.90
34135;DHT22;20410;55.578;12.968;2022-08-25T08:06:07;21.10;99.90
34135;DHT22;20410;55.578;12.968;2022-08-25T08:08:35;21.20;99.90
34135;DHT22;20410;55.578;12.968;2022-08-25T08:11:01;21.30;99.90
34135;DHT22;20410;55.578;12.968;2022-08-25T08:13:26;21.40;99.90
34135;DHT22;20410;55.578;12.968;2022-08-25T08:15:52;21.40;99.90
34135;DHT22;20410;55.578;12.968;2022-08-25T08:18:18;21.40;99.90
34135;DHT22;20410;55.578;12.968;2022-08-25T08:20:47;21.50;99.90
34135;DHT22;20410;55.578;12.968;2022-08-25T08:23:14;21.70;99.90
34135;DHT22;20410;55.578;12.968;2022-08-25T08:25:40;21.80;99.90
34135;DHT22;20410;55.578;12.968;2022-08-25T08:28:06;21.80;99.90
34135;DHT22;20410;55.578;12.968;2022-08-25T08:30:32;21.90;99.90
34135;DHT22;20410;55.578;12.968;2022-08-25T08:32:57;22.00;99.90
34135;DHT22;20410;55.578;12.968;2022-08-25T08:35:23;22.30;99.90
34135;DHT22;20410;55.578;12.968;2022-08-25T08:37:48;22.40;99.90
34135;DHT22;20410;55.578;12.968;2022-08-25T08:40:15;22.40;99.90
34135;DHT22;20410;55.578;12.968;2022-08-25T08:42:52;22.40;99.90
34135;DHT22;20410;55.578;12.968;2022-08-25T08:48:30;22.80;99.90
34135;DHT22;20410;55.578;12.968;2022-08-25T08:51:21;22.90;99.90
34135;DHT22;20410;55.578;12.968;2022-08-25T08:54:07;23.10;99.90
34135;DHT22;20410;55.578;12.968;2022-08-25T08:56:39;23.30;99.90
34135;DHT22;20410;55.578;12.968;2022-08-25T08:59:10;23.20;99.90
34135;DHT22;20410;55.578;12.968;2022-08-25T09:01:44;23.20;99.90
34135;DHT22;20410;55.578;12.968;2022-08-25T09:04:19;23.10;99.90
34135;DHT22;20410;55.578;12.968;2022-08-25T09:06:48;23.20;99.90
34135;DHT22;20410;55.578;12.968;2022-08-25T09:09:29;23.30;99.90
34135;DHT22;20410;55.578;12.968;2022-08-25T09:15:17;23.60;99.90
34135;DHT22;20410;55.578;12.968;2022-08-25T09:20:32;23.90;99.90
34135;DHT22;20410;55.578;12.968;2022-08-25T09:23:12;24.10;99.90
34135;DHT22;20410;55.578;12.968;2022-08-25T09:31:02;24.50;99.90
34135;DHT22;20410;55.578;12.968;2022-08-25T09:33:30;24.50;99.90
34135;DHT22;20410;55.578;12.968;2022-08-25T09:35:57;24.60;99.90
34135;DHT22;20410;55.578;12.968;2022-08-25T09:38:24;24.40;99.90
34135;DHT22;20410;55.578;12.968;2022-08-25T09:40:54;24.30;99.90
34135;DHT22;20410;55.578;12.968;2022-08-25T09:48:41;24.50;99.90
34135;DHT22;20410;55.578;12.968;2022-08-25T09:51:21;24.40;99.90
34135;DHT22;20410;55.578;12.968;2022-08-25T09:53:53;24.30;99.90
34135;DHT22;20410;55.578;12.968;2022-08-25T09:56:31;24.20;99.90
34135;DHT22;20410;55.578;12.968;2022-08-25T09:59:35;24.20;99.90
34135;DHT22;20410;55.578;12.968;2022-08-25T10:04:45;23.90;99.90
34135;DHT22;20410;55.578;12.968;2022-08-25T10:09:56;23.90;99.90
34135;DHT22;20410;55.578;12.968;2022-08-25T10:12:39;24.00;99.90
34135;DHT22;20410;55.578;12.968;2022-08-25T10:15:35;23.90;99.90
34135;DHT22;20410;55.578;12.968;2022-08-25T10:18:27;23.90;99.90
34135;DHT22;20410;55.578;12.968;2022-08-25T10:21:02;23.90;99.90
34135;DHT22;20410;55.578;12.968;2022-08-25T10:23:29;24.00;99.90
34135;DHT22;20410;55.578;12.968;2022-08-25T10:26:02;24.00;99.90
34135;DHT22;20410;55.578;12.968;2022-08-25T10:29:14;24.00;99.90
34135;DHT22;20410;55.578;12.968;2022-08-25T10:32:07;24.00;99.90
34135;DHT22;20410;55.578;12.968;2022-08-25T10:45:25;23.80;99.90
34135;DHT22;20410;55.578;12.968;2022-08-25T11:02:09;24.60;99.90
34135;DHT22;20410;55.578;12.968;2022-08-25T11:04:42;24.80;99.90
34135;DHT22;20410;55.578;12.968;2022-08-25T11:07:25;24.70;99.90
34135;DHT22;20410;55.578;12.968;2022-08-25T11:09:58;24.50;99.90
34135;DHT22;20410;55.578;12.968;2022-08-25T11:12:34;24.50;99.90
34135;DHT22;20410;55.578;12.968;2022-08-25T11:15:49;24.40;99.90
34135;DHT22;20410;55.578;12.968;2022-08-25T11:18:10;24.40;99.90
34135;DHT22;20410;55.578;12.968;2022-08-25T11:20:43;24.30;99.90
34135;DHT22;20410;55.578;12.968;2022-08-25T11:23:16;24.00;99.90
34135;DHT22;20410;55.578;12.968;2022-08-25T11:25:48;23.80;99.90
34135;DHT22;20410;55.578;12.968;2022-08-25T11:28:49;23.80;99.90
34135;DHT22;20410;55.578;12.968;2022-08-25T11:31:16;23.80;99.90
34135;DHT22;20410;55.578;12.968;2022-08-25T11:33:42;23.60;99.90
34135;DHT22;20410;55.578;12.968;2022-08-25T11:41:54;24.10;99.90
34135;DHT22;20410;55.578;12.968;2022-08-25T11:50:03;24.40;99.90
34135;DHT22;20410;55.578;12.968;2022-08-25T11:57:29;24.00;99.90
34135;DHT22;20410;55.578;12.968;2022-08-25T12:00:34;23.80;99.90
34135;DHT22;20410;55.578;12.968;2022-08-25T12:09:15;23.50;99.90
34135;DHT22;20410;55.578;12.968;2022-08-25T12:11:50;23.40;99.90
34135;DHT22;20410;55.578;12.968;2022-08-25T12:21:54;23.70;99.90
34135;DHT22;20410;55.578;12.968;2022-08-25T12:24:36;23.60;99.90
34135;DHT22;20410;55.578;12.968;2022-08-25T12:27:18;23.60;99.90
34135;DHT22;20410;55.578;12.968;2022-08-25T12:29:49;23.80;99.90
34135;DHT22;20410;55.578;12.968;2022-08-25T12:35:02;23.60;99.90
34135;DHT22;20410;55.578;12.968;2022-08-25T12:38:06;23.70;99.90
34135;DHT22;20410;55.578;12.968;2022-08-25T12:49:00;24.30;99.90
34135;DHT22;20410;55.578;12.968;2022-08-25T12:57:00;25.10;99.90
34135;DHT22;20410;55.578;12.968;2022-08-25T12:59:32;25.00;99.90
34135;DHT22;20410;55.578;12.968;2022-08-25T13:18:33;24.90;99.90
34135;DHT22;20410;55.578;12.968;2022-08-25T13:23:34;24.80;99.90
34135;DHT22;20410;55.578;12.968;2022-08-25T13:26:01;24.80;99.90
34135;DHT22;20410;55.578;12.968;2022-08-25T13:28:30;24.80;99.90
34135;DHT22;20410;55.578;12.968;2022-08-25T13:31:08;25.20;99.90
34135;DHT22;20410;55.578;12.968;2022-08-25T13:33:38;25.30;99.90
34135;DHT22;20410;55.578;12.968;2022-08-25T13:36:04;25.30;99.90
34135;DHT22;20410;55.578;12.968;2022-08-25T13:38:49;25.30;99.90
34135;DHT22;20410;55.578;12.968;2022-08-25T13:41:22;25.20;99.90
34135;DHT22;20410;55.578;12.968;2022-08-25T13:43:49;25.30;99.90
34135;DHT22;20410;55.578;12.968;2022-08-25T13:46:18;25.20;99.90
34135;DHT22;20410;55.578;12.968;2022-08-25T13:48:44;25.00;99.90
34135;DHT22;20410;55.578;12.968;2022-08-25T13:51:25;25.00;99.90
34135;DHT22;20410;55.578;12.968;2022-08-25T13:53:54;24.80;99.90
34135;DHT22;20410;55.578;12.968;2022-08-25T13:56:40;24.80;99.90
34135;DHT22;20410;55.578;12.968;2022-08-25T13:59:24;24.70;99.90
34135;DHT22;20410;55.578;12.968;2022-08-25T14:01:52;24.60;99.90
34135;DHT22;20410;55.578;12.968;2022-08-25T14:07:25;24.70;99.90
34135;DHT22;20410;55.578;12.968;2022-08-25T14:10:10;24.60;99.90
34135;DHT22;20410;55.578;12.968;2022-08-25T14:13:27;24.70;99.90
34135;DHT22;20410;55.578;12.968;2022-08-25T14:15:53;24.30;99.90
34135;DHT22;20410;55.578;12.968;2022-08-25T14:18:30;24.10;99.90
34135;DHT22;20410;55.578;12.968;2022-08-25T14:20:57;23.90;99.90
34135;DHT22;20410;55.578;12.968;2022-08-25T14:23:25;23.80;99.90
34135;DHT22;20410;55.578;12.968;2022-08-25T14:25:55;23.60;99.90
34135;DHT22;20410;55.578;12.968;2022-08-25T14:28:27;23.40;99.90
34135;DHT22;20410;55.578;12.968;2022-08-25T14:31:27;23.40;99.90
34135;DHT22;20410;55.578;12.968;2022-08-25T14:34:07;23.60;99.90
34135;DHT22;20410;55.578;12.968;2022-08-25T14:36:34;23.60;99.90
34135;DHT22;20410;55.578;12.968;2022-08-25T14:39:00;23.50;99.90
34135;DHT22;20410;55.578;12.968;2022-08-25T14:41:32;23.60;99.90
34135;DHT22;20410;55.578;12.968;2022-08-25T14:44:02;23.70;99.90
34135;DHT22;20410;55.578;12.968;2022-08-25T14:46:31;23.70;99.90
34135;DHT22;20410;55.578;12.968;2022-08-25T14:49:00;23.80;99.90
34135;DHT22;20410;55.578;12.968;2022-08-25T14:51:28;23.90;99.90
34135;DHT22;20410;55.578;12.968;2022-08-25T14:53:56;23.80;99.90
34135;DHT22;20410;55.578;12.968;2022-08-25T14:56:22;23.70;99.90
34135;DHT22;20410;55.578;12.968;2022-08-25T14:58:48;23.50;99.90
34135;DHT22;20410;55.578;12.968;2022-08-25T15:01:15;23.50;99.90
34135;DHT22;20410;55.578;12.968;2022-08-25T15:03:44;23.50;99.90
34135;DHT22;20410;55.578;12.968;2022-08-25T15:06:12;23.20;99.90
34135;DHT22;20410;55.578;12.968;2022-08-25T15:08:38;23.20;99.90
34135;DHT22;20410;55.578;12.968;2022-08-25T15:11:23;23.30;99.90
34135;DHT22;20410;55.578;12.968;2022-08-25T15:13:48;23.30;99.90
34135;DHT22;20410;55.578;12.968;2022-08-25T15:16:38;23.30;99.90
34135;DHT22;20410;55.578;12.968;2022-08-25T15:19:07;23.20;99.90
34135;DHT22;20410;55.578;12.968;2022-08-25T15:21:35;23.10;99.90
34135;DHT22;20410;55.578;12.968;2022-08-25T15:24:01;23.10;99.90
34135;DHT22;20410;55.578;12.968;2022-08-25T15:26:26;23.00;99.90
34135;DHT22;20410;55.578;12.968;2022-08-25T15:28:52;22.80;99.90
34135;DHT22;20410;55.578;12.968;2022-08-25T15:31:19;22.80;99.90
34135;DHT22;20410;55.578;12.968;2022-08-25T15:33:45;22.80;99.90
34135;DHT22;20410;55.578;12.968;2022-08-25T15:36:13;22.70;99.90
34135;DHT22;20410;55.578;12.968;2022-08-25T15:38:41;22.50;99.90
34135;DHT22;20410;55.578;12.968;2022-08-25T15:41:09;22.60;99.90
34135;DHT22;20410;55.578;12.968;2022-08-25T15:43:36;22.50;99.90
34135;DHT22;20410;55.578;12.968;2022-08-25T15:46:03;22.50;99.90
34135;DHT22;20410;55.578;12.968;2022-08-25T15:48:31;22.50;99.90
34135;DHT22;20410;55.578;12.968;2022-08-25T15:50:57;22.40;99.90
34135;DHT22;20410;55.578;12.968;2022-08-25T15:53:26;22.50;99.90
34135;DHT22;20410;55.578;12.968;2022-08-25T15:55:52;22.50;99.90
34135;DHT22;20410;55.578;12.968;2022-08-25T15:58:18;22.50;99.90
34135;DHT22;20410;55.578;12.968;2022-08-25T16:00:45;22.50;99.90
34135;DHT22;20410;55.578;12.968;2022-08-25T16:03:11;22.70;99.90
34135;DHT22;20410;55.578;12.968;2022-08-25T16:05:38;22.80;99.90
34135;DHT22;20410;55.578;12.968;2022-08-25T16:08:05;22.50;99.90
34135;DHT22;20410;55.578;12.968;2022-08-25T16:10:39;22.40;99.90
34135;DHT22;20410;55.578;12.968;2022-08-25T16:13:06;22.20;99.90
34135;DHT22;20410;55.578;12.968;2022-08-25T16:15:32;21.90;99.90
34135;DHT22;20410;55.578;12.968;2022-08-25T16:17:59;21.80;99.90
34135;DHT22;20410;55.578;12.968;2022-08-25T16:20:26;21.80;99.90
34135;DHT22;20410;55.578;12.968;2022-08-25T16:22:52;21.80;99.90
34135;DHT22;20410;55.578;12.968;2022-08-25T16:25:18;21.60;99.90
34135;DHT22;20410;55.578;12.968;2022-08-25T16:27:44;21.60;99.90
34135;DHT22;20410;55.578;12.968;2022-08-25T16:30:11;21.70;99.90
34135;DHT22;20410;55.578;12.968;2022-08-25T16:32:37;21.60;99.90
34135;DHT22;20410;55.578;12.968;2022-08-25T16:35:04;21.60;99.90
34135;DHT22;20410;55.578;12.968;2022-08-25T16:37:31;21.60;99.90
34135;DHT22;20410;55.578;12.968;2022-08-25T16:39:57;21.60;99.90
34135;DHT22;20410;55.578;12.968;2022-08-25T16:42:22;21.60;99.90
34135;DHT22;20410;55.578;12.968;2022-08-25T16:44:48;21.60;99.90
34135;DHT22;20410;55.578;12.968;2022-08-25T16:47:14;21.50;99.90
34135;DHT22;20410;55.578;12.968;2022-08-25T16:49:42;21.40;99.90
34135;DHT22;20410;55.578;12.968;2022-08-25T16:52:07;21.40;99.90
34135;DHT22;20410;55.578;12.968;2022-08-25T16:54:56;21.40;99.90
34135;DHT22;20410;55.578;12.968;2022-08-25T16:58:10;21.40;99.90
34135;DHT22;20410;55.578;12.968;2022-08-25T17:00:39;21.30;99.90
34135;DHT22;20410;55.578;12.968;2022-08-25T17:03:25;21.30;99.90
34135;DHT22;20410;55.578;12.968;2022-08-25T17:05:50;21.30;99.90
34135;DHT22;20410;55.578;12.968;2022-08-25T17:08:16;21.40;99.90
34135;DHT22;20410;55.578;12.968;2022-08-25T17:11:06;21.50;99.90
34135;DHT22;20410;55.578;12.968;2022-08-25T17:13:33;21.60;99.90
34135;DHT22;20410;55.578;12.968;2022-08-25T17:15:59;21.50;99.90
34135;DHT22;20410;55.578;12.968;2022-08-25T17:18:26;21.50;99.90
34135;DHT22;20410;55.578;12.968;2022-08-25T17:21:09;21.50;99.90
34135;DHT22;20410;55.578;12.968;2022-08-25T17:23:37;21.30;99.90
34135;DHT22;20410;55.578;12.968;2022-08-25T17:26:04;21.40;99.90
34135;DHT22;20410;55.578;12.968;2022-08-25T17:28:31;21.40;99.90
34135;DHT22;20410;55.578;12.968;2022-08-25T17:30:56;21.50;99.90
34135;DHT22;20410;55.578;12.968;2022-08-25T17:33:22;21.50;99.90
34135;DHT22;20410;55.578;12.968;2022-08-25T17:35:51;21.50;99.90
34135;DHT22;20410;55.578;12.968;2022-08-25T17:38:19;21.60;99.90